Time;durP1;ratioP1;P1;durP2;ratioP2;P2;SDS_P1;SDS_P2;PMS_P1;PMS_P2;Temp;Humidity;BMP_temperature;BMP_pressure;BME280_temperature;BME280_humidity;BME280_pressure;Samples;Min_cycle;Max_cycle;Signal;HPM_P1;HPM_P2
2022/12/15 00:41:00;;;;;;;27.92;16.73;;;;;;;0.47;78.80;99299.53;5042676;28;20424;-75
2022/12/15 00:43:29;;;;;;;29.20;17.40;;;;;;;0.46;78.71;99304.03;5049811;28;20433;-75
2022/12/15 00:48:40;;;;;;;28.73;17.25;;;;;;;0.48;78.91;99299.31;5044266;28;20449;-76
2022/12/15 00:51:05;;;;;;;32.03;17.00;;;;;;;0.49;78.68;99306.28;5052838;28;20385;-76
2022/12/15 01:21:03;;;;;;;27.20;16.73;;;;;;;0.46;78.66;99317.34;5033889;28;20577;-75
2022/12/15 01:23:30;;;;;;;28.87;16.93;;;;;;;0.45;78.85;99317.59;5026445;28;20420;-75
2022/12/15 01:25:55;;;;;;;25.90;16.05;;;;;;;0.49;78.81;99316.16;5043390;28;20530;-75
2022/12/15 01:28:22;;;;;;;27.97;16.83;;;;;;;0.51;78.18;99319.41;5041460;28;20457;-75
2022/12/15 01:30:48;;;;;;;31.75;17.50;;;;;;;0.50;78.53;99321.25;5052381;28;20463;-75
2022/12/15 01:33:14;;;;;;;32.95;17.85;;;;;;;0.49;78.32;99322.28;5052773;28;20443;-75
2022/12/15 01:35:40;;;;;;;28.90;17.02;;;;;;;0.49;78.19;99330.25;5034863;28;20403;-75
2022/12/15 01:38:06;;;;;;;27.15;16.73;;;;;;;0.46;78.88;99316.56;5046022;28;20401;-75
2022/12/15 01:40:48;;;;;;;32.75;18.20;;;;;;;0.46;78.16;99322.69;5052244;28;20394;-75
2022/12/15 01:43:19;;;;;;;30.00;18.00;;;;;;;0.48;78.57;99314.50;5052128;28;20405;-75
2022/12/15 01:45:47;;;;;;;36.03;18.10;;;;;;;0.45;78.37;99305.06;5048745;28;20991;-75
2022/12/15 01:48:18;;;;;;;28.05;17.23;;;;;;;0.46;78.63;99316.56;5038207;28;20428;-75
2022/12/15 01:50:56;;;;;;;27.58;17.13;;;;;;;0.45;78.54;99320.25;5036546;28;20897;-75
2022/12/15 01:53:22;;;;;;;27.73;17.35;;;;;;;0.45;78.52;99320.25;5051854;28;20407;-75
2022/12/15 01:55:47;;;;;;;34.83;19.13;;;;;;;0.39;78.15;99321.06;5049071;28;20991;-75
2022/12/15 01:58:15;;;;;;;29.63;17.73;;;;;;;0.40;78.26;99330.69;5048278;28;20412;-75
2022/12/15 02:00:41;;;;;;;32.27;17.57;;;;;;;0.43;78.48;99322.28;5052076;28;20490;-75
2022/12/15 02:03:09;;;;;;;28.15;17.08;;;;;;;0.38;77.83;99330.09;5041457;28;20405;-75
2022/12/15 02:05:35;;;;;;;27.83;17.55;;;;;;;0.35;78.45;99343.84;5054204;28;20965;-75
2022/12/15 02:08:02;;;;;;;29.42;17.65;;;;;;;0.39;77.96;99350.41;5047207;28;20780;-76
2022/12/15 02:11:01;;;;;;;31.10;17.42;;;;;;;0.39;77.95;99337.06;5021974;28;20498;-75
2022/12/15 02:13:37;;;;;;;29.42;17.50;;;;;;;0.42;77.80;99320.66;5034348;28;20457;-75
2022/12/15 02:16:41;;;;;;;29.65;18.52;;;;;;;0.43;77.80;99328.44;5050036;28;20439;-75
2022/12/15 02:19:44;;;;;;;31.40;18.27;;;;;;;0.43;77.98;99340.94;5042528;28;20791;-75
2022/12/15 02:22:45;;;;;;;29.80;17.15;;;;;;;0.44;78.18;99342.59;5049050;28;20436;-75
2022/12/15 02:25:55;;;;;;;30.27;17.73;;;;;;;0.43;77.96;99335.59;5035799;28;20401;-75
2022/12/15 02:28:41;;;;;;;31.73;18.52;;;;;;;0.44;78.07;99332.75;5022534;28;20926;-75
2022/12/15 02:34:07;;;;;;;27.60;17.65;;;;;;;0.44;77.75;99355.91;5051512;28;20967;-75
2022/12/15 02:36:37;;;;;;;27.83;17.20;;;;;;;0.41;77.87;99351.81;5046214;28;20453;-75
2022/12/15 02:39:04;;;;;;;28.48;17.58;;;;;;;0.42;77.56;99350.81;5027062;28;20453;-76
2022/12/15 02:41:41;;;;;;;31.65;18.25;;;;;;;0.46;77.71;99357.34;5049152;28;20401;-75
2022/12/15 02:44:25;;;;;;;28.42;17.27;;;;;;;0.46;77.48;99354.66;5051197;28;20417;-75
2022/12/15 02:47:12;;;;;;;30.15;17.67;;;;;;;0.46;77.06;99346.66;5051302;28;20808;-75
2022/12/15 02:50:04;;;;;;;27.67;16.83;;;;;;;0.45;77.42;99355.72;5048832;28;20585;-75
2022/12/15 02:52:57;;;;;;;31.20;18.23;;;;;;;0.47;77.16;99369.66;5050500;28;20452;-75
2022/12/15 02:55:48;;;;;;;29.48;17.45;;;;;;;0.48;77.11;99359.81;5043877;28;20514;-75
2022/12/15 02:58:38;;;;;;;28.73;17.23;;;;;;;0.48;77.40;99355.31;5040452;28;20463;-75
2022/12/15 03:01:44;;;;;;;32.92;17.85;;;;;;;0.41;77.13;99357.16;5029216;28;20902;-75
2022/12/15 03:04:10;;;;;;;30.48;18.23;;;;;;;0.39;77.19;99353.88;5026596;28;21022;-75
2022/12/15 03:06:36;;;;;;;33.10;18.50;;;;;;;0.40;77.36;99354.69;5021051;28;20411;-75
2022/12/15 03:09:02;;;;;;;27.27;17.10;;;;;;;0.42;77.57;99368.63;5044790;28;20409;-76
2022/12/15 03:11:28;;;;;;;32.08;18.15;;;;;;;0.40;77.19;99368.81;5036722;28;20401;-75
2022/12/15 03:13:53;;;;;;;35.85;19.10;;;;;;;0.42;76.81;99372.13;5031383;28;20433;-75
2022/12/15 03:16:19;;;;;;;30.35;17.35;;;;;;;0.41;77.47;99366.97;5053993;28;20395;-75
2022/12/15 03:18:45;;;;;;;33.55;18.48;;;;;;;0.40;77.45;99376.81;5053006;28;20397;-75
2022/12/15 03:21:10;;;;;;;31.60;17.13;;;;;;;0.38;77.48;99370.88;5022287;28;20725;-75
2022/12/15 03:23:35;;;;;;;31.00;19.07;;;;;;;0.41;77.44;99366.97;5055048;28;20385;-75
2022/12/15 03:26:00;;;;;;;30.10;17.13;;;;;;;0.43;77.09;99367.59;5031536;28;20446;-75
2022/12/15 03:28:26;;;;;;;33.17;18.93;;;;;;;0.44;77.37;99356.72;5050089;28;20953;-75
2022/12/15 03:30:51;;;;;;;29.60;18.13;;;;;;;0.45;77.30;99358.38;5054504;28;20399;-75
2022/12/15 03:33:17;;;;;;;32.40;18.33;;;;;;;0.46;77.26;99361.88;5054258;28;20730;-75
2022/12/15 03:35:42;;;;;;;35.97;19.25;;;;;;;0.45;77.31;99358.38;5050445;28;20400;-75
2022/12/15 03:38:07;;;;;;;31.03;18.67;;;;;;;0.46;76.93;99367.22;5046259;28;20402;-75
2022/12/15 03:40:33;;;;;;;30.90;18.50;;;;;;;0.43;77.10;99368.41;5028822;28;20931;-75
2022/12/15 03:42:58;;;;;;;34.13;18.77;;;;;;;0.42;77.16;99382.78;5035618;28;20539;-75
2022/12/15 03:45:25;;;;;;;29.80;18.63;;;;;;;0.42;77.06;99379.28;5023875;28;20474;-75
2022/12/15 03:47:52;;;;;;;30.33;18.60;;;;;;;0.40;77.39;99384.00;5039743;28;20867;-75
2022/12/15 03:50:21;;;;;;;31.47;19.00;;;;;;;0.38;77.61;99386.88;5047609;28;20411;-75
2022/12/15 03:53:01;;;;;;;31.58;18.55;;;;;;;0.37;77.37;99385.22;5048970;28;20483;-75
2022/12/15 03:55:30;;;;;;;31.35;19.20;;;;;;;0.37;77.37;99387.06;5045921;28;20461;-75
2022/12/15 03:57:56;;;;;;;31.23;18.25;;;;;;;0.35;77.25;99386.47;5046820;28;20458;-75
2022/12/15 04:00:23;;;;;;;29.92;17.77;;;;;;;0.33;77.18;99392.00;5042984;28;20406;-75
2022/12/15 04:02:49;;;;;;;34.33;18.85;;;;;;;0.30;77.49;99389.72;5043736;28;20894;-75
2022/12/15 04:05:18;;;;;;;31.25;19.80;;;;;;;0.26;77.22;99388.53;5042444;28;20405;-75
2022/12/15 04:07:44;;;;;;;27.55;18.60;;;;;;;0.19;77.31;99384.22;5043776;28;20427;-75
2022/12/15 04:10:10;;;;;;;33.93;18.70;;;;;;;0.21;77.69;99382.97;5038021;28;20409;-75
2022/12/15 04:12:38;;;;;;;32.55;18.85;;;;;;;0.25;77.50;99381.56;5043773;28;20396;-75
2022/12/15 04:15:05;;;;;;;34.42;18.98;;;;;;;0.29;77.51;99371.31;5047998;28;20438;-75
2022/12/15 04:17:30;;;;;;;33.22;18.98;;;;;;;0.29;77.72;99374.78;5043031;28;20735;-75
2022/12/15 04:20:10;;;;;;;31.07;18.93;;;;;;;0.31;77.65;99377.22;5053951;28;20390;-75
2022/12/15 04:22:38;;;;;;;34.37;18.03;;;;;;;0.33;77.18;99373.34;5054378;28;20399;-75
2022/12/15 05:33:27;;;;;;;34.28;19.15;;;;;;;0.38;78.41;99400.19;5027351;28;20516;-75
2022/12/15 05:35:56;;;;;;;38.23;19.07;;;;;;;0.37;78.80;99408.38;5019616;28;20482;-75
2022/12/15 05:38:21;;;;;;;36.40;20.00;;;;;;;0.37;78.51;99395.06;5044611;28;20960;-75
2022/12/15 05:40:46;;;;;;;36.13;18.57;;;;;;;0.38;78.38;99394.88;5049345;28;20402;-75
2022/12/15 05:43:12;;;;;;;36.17;19.27;;;;;;;0.42;78.64;99397.94;5045993;28;20402;-75
2022/12/15 05:45:37;;;;;;;33.57;18.90;;;;;;;0.41;78.47;99405.13;5032406;28;20914;-75
2022/12/15 05:48:02;;;;;;;35.13;19.10;;;;;;;0.43;78.53;99415.56;5032278;28;20476;-75
2022/12/15 05:50:28;;;;;;;34.77;20.00;;;;;;;0.43;78.53;99408.38;5036362;28;20495;-75
2022/12/15 05:52:54;;;;;;;35.13;20.07;;;;;;;0.42;78.80;99404.09;5038374;28;20492;-75
2022/12/15 05:55:19;;;;;;;34.30;19.30;;;;;;;0.41;78.39;99399.78;5047086;28;20411;-75
2022/12/15 05:57:52;;;;;;;31.60;19.55;;;;;;;0.43;78.84;99399.56;5032806;28;20881;-75
2022/12/15 06:00:18;;;;;;;35.55;20.02;;;;;;;0.39;78.39;99406.34;5036818;28;20486;-74
2022/12/15 06:02:43;;;;;;;38.90;20.65;;;;;;;0.37;78.58;99414.53;5027974;28;20480;-75
2022/12/15 06:05:09;;;;;;;39.03;20.67;;;;;;;0.39;79.02;99417.03;5024804;28;20480;-75
2022/12/15 06:07:35;;;;;;;38.10;20.35;;;;;;;0.45;78.33;99416.19;5039722;28;20405;-74
2022/12/15 06:10:00;;;;;;;39.65;21.42;;;;;;;0.45;78.78;99424.19;5031467;28;20406;-74
2022/12/15 06:12:25;;;;;;;40.63;21.07;;;;;;;0.43;78.53;99410.22;5052006;28;20436;-75
2022/12/15 06:14:51;;;;;;;36.10;20.48;;;;;;;0.38;78.70;99423.38;5051590;28;20437;-75
2022/12/15 06:17:16;;;;;;;39.10;20.03;;;;;;;0.40;79.08;99438.13;5050533;28;20900;-74
2022/12/15 06:19:41;;;;;;;37.70;19.50;;;;;;;0.42;78.54;99430.75;5042674;28;20409;-74
2022/12/15 06:22:07;;;;;;;37.70;20.20;;;;;;;0.44;78.57;99433.19;5040224;28;20397;-74
2022/12/15 06:24:32;;;;;;;38.07;19.50;;;;;;;0.42;78.51;99429.94;5044978;28;20403;-75
2022/12/15 06:26:58;;;;;;;39.10;20.90;;;;;;;0.44;78.70;99441.19;5043255;28;20405;-75
2022/12/15 06:29:23;;;;;;;46.33;22.27;;;;;;;0.42;78.90;99437.94;5047530;28;20401;-75
2022/12/15 06:31:48;;;;;;;36.92;20.88;;;;;;;0.45;78.65;99429.53;5051577;28;20385;-74
2022/12/15 06:34:15;;;;;;;45.57;23.80;;;;;;;0.46;78.54;99439.16;5048203;28;20415;-75
2022/12/15 06:36:41;;;;;;;46.70;23.70;;;;;;;0.47;78.67;99443.44;5046658;28;20393;-74
2022/12/15 06:39:10;;;;;;;38.72;21.70;;;;;;;0.48;78.73;99442.44;5039691;28;20775;-74
2022/12/15 06:41:36;;;;;;;42.85;21.85;;;;;;;0.44;78.84;99446.53;5020738;28;20438;-74
2022/12/15 06:44:02;;;;;;;38.75;21.20;;;;;;;0.41;78.80;99449.59;5035793;28;20416;-74
2022/12/15 06:46:29;;;;;;;41.27;21.37;;;;;;;0.41;78.54;99453.09;5027919;28;20821;-74
2022/12/15 06:48:56;;;;;;;41.88;21.10;;;;;;;0.45;78.86;99453.50;5017870;28;20439;-73
2022/12/15 06:51:21;;;;;;;40.03;21.02;;;;;;;0.45;78.55;99448.19;5047637;28;20451;-73
2022/12/15 06:53:52;;;;;;;35.38;20.10;;;;;;;0.46;78.75;99442.63;5040970;28;20792;-73
2022/12/15 06:56:30;;;;;;;37.05;20.65;;;;;;;0.45;78.12;99438.34;5032237;28;20520;-73
2022/12/15 06:58:57;;;;;;;31.80;19.75;;;;;;;0.45;78.21;99438.34;5029549;28;20500;-73
2022/12/15 07:01:24;;;;;;;37.63;20.67;;;;;;;0.45;78.63;99426.84;5044299;28;20393;-73
2022/12/15 07:03:50;;;;;;;36.70;19.90;;;;;;;0.44;78.28;99419.88;5026592;28;20393;-73
2022/12/15 07:06:16;;;;;;;35.67;19.88;;;;;;;0.43;78.40;99419.06;5037643;28;20409;-73
2022/12/15 07:08:42;;;;;;;39.63;22.10;;;;;;;0.40;78.59;99418.63;5035411;28;20414;-73
2022/12/15 07:11:11;;;;;;;37.00;21.02;;;;;;;0.40;78.54;99424.78;5018547;28;20482;-73
2022/12/15 07:13:37;;;;;;;38.13;21.13;;;;;;;0.42;78.42;99428.09;5024074;28;20411;-73
2022/12/15 07:16:05;;;;;;;41.33;21.23;;;;;;;0.42;78.69;99428.09;5050997;28;20389;-73
2022/12/15 07:18:30;;;;;;;37.50;21.00;;;;;;;0.41;78.60;99437.09;5041464;28;20432;-75
2022/12/15 07:21:01;;;;;;;36.03;20.57;;;;;;;0.44;78.45;99436.69;5048686;28;20465;-73
2022/12/15 07:23:28;;;;;;;39.07;21.57;;;;;;;0.44;78.40;99430.53;5050750;28;20511;-73
2022/12/15 07:25:53;;;;;;;37.08;20.88;;;;;;;0.45;78.35;99425.03;5036765;28;20408;-73
2022/12/15 07:28:18;;;;;;;42.17;21.50;;;;;;;0.43;78.34;99424.38;5040450;28;20554;-72
2022/12/15 07:30:43;;;;;;;39.93;21.83;;;;;;;0.40;78.27;99423.97;5042362;28;20400;-73
2022/12/15 07:33:09;;;;;;;37.97;20.97;;;;;;;0.40;78.51;99416.78;5015041;28;20760;-73
2022/12/15 07:35:34;;;;;;;39.33;22.03;;;;;;;0.39;78.06;99417.84;5031148;28;20407;-73
2022/12/15 07:37:59;;;;;;;40.20;21.93;;;;;;;0.38;78.21;99423.38;5029108;28;20395;-72
2022/12/15 07:40:25;;;;;;;36.53;21.63;;;;;;;0.42;78.62;99430.75;5030006;28;20901;-73
2022/12/15 07:42:50;;;;;;;39.42;21.42;;;;;;;0.45;78.46;99434.84;5034611;28;20436;-73
2022/12/15 07:45:15;;;;;;;35.95;21.75;;;;;;;0.44;78.07;99455.34;5026827;28;20426;-73
2022/12/15 07:47:41;;;;;;;37.30;21.70;;;;;;;0.45;78.15;99457.00;5030569;28;20478;-73
2022/12/15 07:50:06;;;;;;;36.90;21.07;;;;;;;0.50;78.40;99453.69;5012388;28;20792;-73
2022/12/15 07:52:32;;;;;;;36.67;20.93;;;;;;;0.52;78.17;99457.00;5044234;28;20417;-73
2022/12/15 07:54:57;;;;;;;37.87;22.23;;;;;;;0.50;78.14;99457.19;5024559;28;20486;-73
2022/12/15 07:57:22;;;;;;;39.87;22.07;;;;;;;0.52;77.89;99467.66;5050482;28;20432;-73
2022/12/15 07:59:49;;;;;;;39.40;22.33;;;;;;;0.57;77.98;99478.53;5046510;28;20402;-73
2022/12/15 08:02:14;;;;;;;42.25;22.75;;;;;;;0.57;77.99;99481.19;5052659;28;20421;-73
2022/12/15 08:04:40;;;;;;;40.00;22.13;;;;;;;0.62;77.71;99483.25;5054393;28;20424;-73
2022/12/15 08:07:06;;;;;;;35.72;21.70;;;;;;;0.68;77.38;99495.75;5038684;28;20412;-73
2022/12/15 08:09:31;;;;;;;34.83;21.50;;;;;;;0.72;77.52;99487.16;5038570;28;20459;-73
2022/12/15 08:11:57;;;;;;;37.40;22.07;;;;;;;0.69;77.32;99484.88;5047730;28;20447;-72
2022/12/15 08:14:22;;;;;;;37.72;20.73;;;;;;;0.72;77.13;99486.34;5054456;28;20381;-73
2022/12/15 08:16:48;;;;;;;37.00;21.70;;;;;;;0.78;77.11;99486.34;5052979;28;20804;-73
2022/12/15 08:19:14;;;;;;;37.28;21.75;;;;;;;0.77;77.09;99499.84;5030651;28;20409;-73
2022/12/15 08:21:41;;;;;;;38.10;21.88;;;;;;;0.76;76.95;99490.25;5026160;28;20385;-73
2022/12/15 08:24:08;;;;;;;40.80;22.88;;;;;;;0.75;77.04;99492.09;5052885;28;20381;-73
2022/12/15 08:26:36;;;;;;;37.77;21.50;;;;;;;0.67;76.47;99502.94;5025105;28;20743;-73
2022/12/15 08:29:04;;;;;;;35.25;21.25;;;;;;;0.66;76.70;99503.94;5039807;28;20418;-73
2022/12/15 08:31:32;;;;;;;37.65;21.60;;;;;;;0.63;76.27;99506.19;5021588;28;20523;-73
2022/12/15 08:33:58;;;;;;;38.30;22.13;;;;;;;0.65;76.20;99521.00;5018126;28;20401;-73
2022/12/15 08:36:23;;;;;;;36.70;21.48;;;;;;;0.68;76.46;99522.44;5030350;28;20389;-73
2022/12/15 08:38:49;;;;;;;39.93;22.43;;;;;;;0.71;76.21;99533.50;5050201;28;20394;-73
2022/12/15 08:41:24;;;;;;;34.53;21.33;;;;;;;0.78;76.00;99530.84;5025373;28;20408;-73
2022/12/15 08:43:50;;;;;;;41.25;22.15;;;;;;;0.81;76.06;99531.25;5030551;28;20403;-73
2022/12/15 08:46:18;;;;;;;34.55;21.27;;;;;;;0.80;75.68;99534.94;5031339;28;20420;-73
2022/12/15 08:48:43;;;;;;;41.13;22.10;;;;;;;0.74;75.53;99522.44;5044503;28;20404;-73
2022/12/15 08:51:09;;;;;;;38.63;22.57;;;;;;;0.68;76.09;99519.75;5029751;28;20899;-73
2022/12/15 08:53:35;;;;;;;37.15;21.90;;;;;;;0.72;76.10;99511.16;5053444;28;20451;-73
2022/12/15 08:56:04;;;;;;;39.22;22.50;;;;;;;0.76;76.01;99509.69;5053643;28;20881;-73
2022/12/15 08:58:30;;;;;;;38.28;22.80;;;;;;;0.87;75.75;99511.78;5053534;28;20430;-73
2022/12/15 09:01:04;;;;;;;38.63;22.27;;;;;;;0.96;75.12;99505.19;5036786;28;20892;-73
2022/12/15 09:03:29;;;;;;;37.10;21.88;;;;;;;1.02;74.86;99506.22;5023548;28;20416;-73
2022/12/15 09:05:56;;;;;;;35.77;22.33;;;;;;;0.98;74.73;99505.00;5051374;28;20381;-73
2022/12/15 09:08:22;;;;;;;36.17;22.07;;;;;;;0.95;74.92;99503.56;5045539;28;20838;-73
2022/12/15 09:10:48;;;;;;;41.00;23.00;;;;;;;0.90;74.71;99502.53;5033994;28;20402;-73
2022/12/15 09:13:13;;;;;;;41.03;22.80;;;;;;;0.89;74.78;99501.69;5052751;28;20740;-74
2022/12/15 09:15:42;;;;;;;34.37;21.60;;;;;;;0.91;74.93;99509.50;5051875;28;20382;-74
2022/12/15 09:18:07;;;;;;;46.50;25.38;;;;;;;0.97;74.76;99511.34;5039437;28;20403;-74
2022/12/15 09:20:32;;;;;;;42.38;24.58;;;;;;;0.98;74.62;99513.00;5031362;28;20405;-74
2022/12/15 09:22:58;;;;;;;38.20;22.17;;;;;;;0.94;74.23;99525.09;5051784;28;20386;-74
2022/12/15 09:25:23;;;;;;;38.83;21.93;;;;;;;0.93;74.80;99524.28;5051718;28;20398;-74
2022/12/15 09:27:48;;;;;;;38.63;22.97;;;;;;;1.00;74.27;99529.63;5051619;28;20811;-74
2022/12/15 09:30:14;;;;;;;39.77;23.67;;;;;;;0.99;73.92;99535.97;5048470;28;20414;-73
2022/12/15 09:32:39;;;;;;;37.37;22.33;;;;;;;1.02;74.27;99527.56;5031575;28;20806;-74
2022/12/15 09:35:04;;;;;;;36.70;23.13;;;;;;;1.09;73.86;99532.91;5025049;28;20403;-74
2022/12/15 09:37:31;;;;;;;36.90;22.50;;;;;;;1.17;73.64;99527.34;5036172;28;20796;-74
2022/12/15 09:39:56;;;;;;;40.30;22.73;;;;;;;1.22;73.09;99524.88;5039324;28;20914;-74
2022/12/15 09:42:26;;;;;;;38.37;22.43;;;;;;;1.21;73.44;99520.56;5029524;28;20417;-74
2022/12/15 09:45:01;;;;;;;43.55;23.20;;;;;;;1.21;73.50;99523.25;5031265;28;20508;-73
2022/12/15 09:47:38;;;;;;;34.70;22.07;;;;;;;1.13;73.71;99518.09;5022380;28;20487;-74
2022/12/15 09:50:08;;;;;;;37.78;21.98;;;;;;;1.19;73.47;99511.94;5025059;28;20452;-74
2022/12/15 09:52:51;;;;;;;35.17;22.25;;;;;;;1.30;73.28;99520.16;5026692;28;20421;-73
2022/12/15 09:55:20;;;;;;;37.17;21.43;;;;;;;1.34;72.88;99524.06;5048653;28;20448;-73
2022/12/15 09:57:53;;;;;;;38.33;21.90;;;;;;;1.41;72.63;99513.34;5046954;28;20487;-74
2022/12/15 10:00:32;;;;;;;35.83;21.90;;;;;;;1.41;72.67;99516.03;5051832;28;21039;-74
2022/12/15 10:03:10;;;;;;;39.30;22.23;;;;;;;1.35;72.73;99503.53;5034403;28;20502;-74
2022/12/15 10:05:44;;;;;;;39.28;22.13;;;;;;;1.30;72.65;99496.13;5050778;28;20378;-74
2022/12/15 10:08:12;;;;;;;37.63;22.05;;;;;;;1.28;72.78;99502.72;5038389;28;20972;-74
2022/12/15 10:10:56;;;;;;;34.17;21.60;;;;;;;1.26;72.66;99502.91;5028326;28;20435;-74
2022/12/15 10:13:32;;;;;;;37.85;22.88;;;;;;;1.24;72.87;99504.97;5027205;28;20435;-74
2022/12/15 10:16:03;;;;;;;35.90;22.63;;;;;;;1.27;72.47;99509.88;5048953;28;20519;-74
2022/12/15 10:18:36;;;;;;;35.42;21.90;;;;;;;1.36;72.64;99515.81;5051738;28;20814;-74
2022/12/15 10:21:01;;;;;;;39.17;22.80;;;;;;;1.43;72.45;99525.47;5033328;28;20483;-74
2022/12/15 10:23:27;;;;;;;38.13;22.47;;;;;;;1.57;72.06;99526.25;5037105;28;20435;-74
2022/12/15 10:26:09;;;;;;;35.60;21.33;;;;;;;1.58;71.96;99509.22;5044040;28;20412;-74
2022/12/15 10:29:17;;;;;;;37.53;22.13;;;;;;;1.56;71.84;99519.25;5044389;28;20453;-74
2022/12/15 10:31:50;;;;;;;34.13;20.88;;;;;;;1.62;71.93;99515.75;5044243;28;20548;-74
2022/12/15 10:34:26;;;;;;;35.72;21.65;;;;;;;1.80;71.60;99510.56;5038652;28;20412;-74
2022/12/15 10:36:53;;;;;;;34.67;21.93;;;;;;;1.97;71.38;99498.38;5046582;28;20466;-74
2022/12/15 10:39:20;;;;;;;38.47;22.80;;;;;;;2.06;70.94;99481.06;5034732;28;20770;-74
2022/12/15 10:41:47;;;;;;;39.40;22.45;;;;;;;2.08;70.42;99483.50;5044879;28;20409;-73
2022/12/15 10:44:25;;;;;;;33.63;22.00;;;;;;;2.02;70.77;99479.84;5017804;28;20449;-74
2022/12/15 10:46:54;;;;;;;36.92;22.45;;;;;;;1.93;70.65;99472.28;5023493;28;20934;-73
2022/12/15 10:49:22;;;;;;;40.05;21.25;;;;;;;1.87;71.11;99457.13;5029266;28;20501;-74
2022/12/15 10:51:52;;;;;;;41.58;23.23;;;;;;;1.91;70.99;99453.78;5039512;28;20527;-74
2022/12/15 10:54:17;;;;;;;40.20;23.17;;;;;;;1.91;71.01;99453.78;5018134;28;20796;-73
2022/12/15 10:56:52;;;;;;;37.87;22.70;;;;;;;1.98;71.14;99461.75;5034918;28;21040;-73
2022/12/15 10:59:30;;;;;;;38.13;22.85;;;;;;;1.91;70.87;99451.09;5038604;28;20433;-73
2022/12/15 11:02:17;;;;;;;44.38;24.30;;;;;;;1.81;71.09;99458.75;5028418;28;20537;-73
2022/12/15 11:04:57;;;;;;;38.07;22.53;;;;;;;1.78;71.30;99447.72;5033772;28;20572;-73
2022/12/15 11:07:32;;;;;;;40.20;24.13;;;;;;;1.80;70.89;99454.47;5031732;28;20493;-73
2022/12/15 11:10:00;;;;;;;45.72;25.08;;;;;;;1.79;71.01;99450.16;5050354;28;20520;-73
2022/12/15 11:15:22;;;;;;;42.97;24.90;;;;;;;1.91;71.47;99428.94;5051085;28;20437;-73
2022/12/15 11:18:00;;;;;;;42.28;23.45;;;;;;;1.98;70.95;99449.22;5037713;28;20892;-74
2022/12/15 11:20:36;;;;;;;44.03;24.70;;;;;;;1.98;71.07;99457.25;5038043;28;20445;-73
2022/12/15 11:23:08;;;;;;;40.38;23.23;;;;;;;1.99;71.15;99456.22;5017767;28;20443;-73
2022/12/15 11:25:41;;;;;;;41.63;24.50;;;;;;;2.06;71.18;99454.34;5049768;28;20474;-73
2022/12/15 11:28:17;;;;;;;39.83;24.42;;;;;;;2.11;71.04;99453.66;5051026;28;20424;-73
2022/12/15 11:30:59;;;;;;;40.70;23.80;;;;;;;2.10;70.96;99462.75;5041717;28;20897;-73
2022/12/15 11:33:24;;;;;;;39.45;23.80;;;;;;;2.06;70.88;99451.66;5033751;28;20461;-73
2022/12/15 11:36:08;;;;;;;36.35;22.48;;;;;;;2.03;70.68;99444.06;5038139;28;20407;-73
2022/12/15 11:38:43;;;;;;;39.63;23.70;;;;;;;2.03;71.03;99425.38;5051343;28;20416;-73
2022/12/15 11:41:24;;;;;;;41.33;24.38;;;;;;;2.05;70.49;99412.59;5052461;28;20465;-73
2022/12/15 11:44:15;;;;;;;38.83;23.13;;;;;;;2.06;70.32;99408.09;5040016;28;20432;-73
2022/12/15 11:47:06;;;;;;;42.75;24.23;;;;;;;2.09;70.03;99394.28;5029407;28;20474;-73
2022/12/15 11:49:35;;;;;;;40.00;23.00;;;;;;;2.06;70.20;99376.84;5035046;28;20812;-73
2022/12/15 11:52:32;;;;;;;41.80;23.53;;;;;;;2.03;70.23;99371.94;5033375;28;20469;-73
2022/12/15 11:55:14;;;;;;;36.28;22.98;;;;;;;2.06;70.37;99379.50;5021116;28;20463;-72
2022/12/15 11:57:48;;;;;;;39.20;23.42;;;;;;;2.04;70.30;99376.22;5031144;28;20906;-73
2022/12/15 12:00:17;;;;;;;37.03;22.77;;;;;;;1.99;70.32;99369.88;5023472;28;20448;-73
2022/12/15 12:02:58;;;;;;;36.38;21.65;;;;;;;1.98;70.13;99365.56;5034753;28;20793;-73
2022/12/15 12:05:23;;;;;;;37.42;23.00;;;;;;;1.99;70.60;99365.38;5039196;28;20423;-73
2022/12/15 12:07:54;;;;;;;39.10;22.83;;;;;;;2.05;70.27;99353.81;5050853;28;20930;-73
2022/12/15 12:10:34;;;;;;;40.10;22.63;;;;;;;2.05;70.29;99353.81;5031516;28;20928;-73
2022/12/15 12:13:08;;;;;;;41.58;24.13;;;;;;;2.03;70.13;99355.06;5032206;28;20401;-72
2022/12/15 12:15:52;;;;;;;41.67;23.93;;;;;;;1.98;70.27;99341.53;5034974;28;20395;-73
2022/12/15 12:18:26;;;;;;;42.10;24.20;;;;;;;1.98;70.29;99336.19;5031511;28;20472;-73
2022/12/15 12:21:09;;;;;;;39.77;23.77;;;;;;;1.98;70.35;99344.19;5043116;28;20397;-73
2022/12/15 12:23:59;;;;;;;39.15;22.77;;;;;;;2.03;70.11;99344.38;5032690;28;20491;-72
2022/12/15 12:26:27;;;;;;;40.17;22.30;;;;;;;2.05;70.27;99342.31;5030304;28;20385;-72
2022/12/15 12:29:05;;;;;;;39.83;23.52;;;;;;;2.02;69.61;99348.91;5033334;28;20413;-72
2022/12/15 12:31:44;;;;;;;38.10;23.15;;;;;;;2.01;70.07;99349.94;5031799;28;20426;-73
2022/12/15 12:34:25;;;;;;;34.83;22.13;;;;;;;2.04;69.69;99354.84;5024296;28;20438;-73
2022/12/15 12:36:52;;;;;;;37.53;22.57;;;;;;;2.04;69.97;99344.16;5030379;28;20576;-73
2022/12/15 12:39:23;;;;;;;38.95;21.10;;;;;;;2.07;69.68;99345.59;5033801;28;20973;-73
2022/12/15 12:41:54;;;;;;;36.38;21.45;;;;;;;2.05;69.65;99342.31;5045730;28;20506;-73
2022/12/15 12:44:29;;;;;;;39.92;22.40;;;;;;;2.02;69.72;99332.06;5022170;28;20779;-73
2022/12/15 12:46:57;;;;;;;40.95;24.20;;;;;;;2.01;69.84;99319.72;5026566;28;20421;-72
2022/12/15 12:49:36;;;;;;;44.15;24.35;;;;;;;1.99;69.86;99309.25;5051560;28;20420;-73
2022/12/15 12:52:04;;;;;;;43.63;25.38;;;;;;;2.00;70.22;99308.22;5053480;28;20396;-72
2022/12/15 12:54:29;;;;;;;42.67;24.40;;;;;;;2.04;70.15;99311.28;5049123;28;20435;-72
2022/12/15 12:56:55;;;;;;;42.73;24.00;;;;;;;2.14;69.96;99302.78;5053435;28;20398;-74
2022/12/15 12:59:29;;;;;;;44.10;24.63;;;;;;;2.21;70.04;99304.34;5052792;28;20397;-72
2022/12/15 13:02:20;;;;;;;42.63;25.20;;;;;;;2.13;69.83;99295.78;5035026;28;20457;-73
2022/12/15 13:05:23;;;;;;;44.95;24.50;;;;;;;2.23;69.74;99296.94;5050176;28;20429;-75
2022/12/15 13:08:07;;;;;;;43.53;26.10;;;;;;;2.18;69.63;99299.44;5037610;28;20444;-75
2022/12/15 13:10:35;;;;;;;43.75;25.77;;;;;;;2.23;69.58;99296.94;5028448;28;20441;-74
2022/12/15 13:13:30;;;;;;;48.88;26.30;;;;;;;2.33;69.23;99289.25;5043052;28;20752;-74
2022/12/15 13:16:19;;;;;;;48.33;26.45;;;;;;;2.29;69.12;99290.72;5033399;28;20432;-74
2022/12/15 13:19:05;;;;;;;46.38;25.42;;;;;;;2.22;69.17;99283.78;5016804;28;20426;-74
2022/12/15 13:21:45;;;;;;;42.90;25.00;;;;;;;2.27;69.26;99287.44;5017374;28;20397;-74
2022/12/15 13:24:45;;;;;;;47.53;26.27;;;;;;;2.35;69.23;99276.47;5023286;28;20778;-73
2022/12/15 13:27:14;;;;;;;43.42;24.73;;;;;;;2.40;69.20;99268.59;5018679;28;20944;-73
2022/12/15 13:30:11;;;;;;;45.40;24.60;;;;;;;2.36;69.16;99271.94;5033592;28;20403;-74
2022/12/15 13:32:38;;;;;;;42.00;24.52;;;;;;;2.39;69.13;99274.16;5009378;28;20431;-73
2022/12/15 13:35:12;;;;;;;42.58;24.70;;;;;;;2.34;68.88;99260.66;5031274;28;20912;-74
2022/12/15 13:38:06;;;;;;;40.22;24.33;;;;;;;2.40;68.87;99255.25;5041450;28;20420;-74
2022/12/15 13:40:34;;;;;;;45.58;24.90;;;;;;;2.30;69.07;99259.47;5032299;28;20395;-74
2022/12/15 13:43:02;;;;;;;43.42;23.17;;;;;;;2.26;69.22;99255.56;5046007;28;20753;-74
2022/12/15 13:45:34;;;;;;;34.30;22.17;;;;;;;2.14;69.23;99262.69;5043505;28;20448;-74
2022/12/15 13:48:00;;;;;;;38.75;23.85;;;;;;;2.09;69.28;99266.84;5036029;28;20810;-74
2022/12/15 13:50:35;;;;;;;39.83;23.17;;;;;;;2.03;69.26;99267.72;5032208;28;20397;-74
2022/12/15 13:53:09;;;;;;;35.40;22.50;;;;;;;2.04;69.41;99265.88;5030927;28;20489;-74
2022/12/15 13:55:45;;;;;;;38.55;22.20;;;;;;;1.97;69.31;99260.56;5040696;28;20424;-73
2022/12/15 13:58:17;;;;;;;41.28;21.75;;;;;;;1.92;69.61;99256.91;5022971;28;20481;-73
2022/12/15 14:00:54;;;;;;;44.37;23.60;;;;;;;1.86;69.90;99255.13;5033207;28;20488;-73
2022/12/15 14:03:19;;;;;;;43.17;25.25;;;;;;;1.81;70.22;99260.31;5049627;28;20539;-73
2022/12/15 14:05:53;;;;;;;41.73;24.47;;;;;;;1.82;70.16;99261.91;5032426;28;20503;-73
2022/12/15 14:08:20;;;;;;;38.63;23.73;;;;;;;1.75;70.03;99259.28;5027267;28;20464;-73